sensor_id;sensor_type;location;lat;lon;timestamp;temperature;humidity
10384;DHT22;5238;43.508;4.980;2022-10-31T00:00:24;19.00;91.30
10384;DHT22;5238;43.508;4.980;2022-10-31T00:02:59;19.00;91.30
10384;DHT22;5238;43.508;4.980;2022-10-31T00:05:34;19.00;91.30
10384;DHT22;5238;43.508;4.980;2022-10-31T00:08:01;19.00;91.30
10384;DHT22;5238;43.508;4.980;2022-10-31T00:10:36;19.00;91.30
10384;DHT22;5238;43.508;4.980;2022-10-31T00:13:12;18.90;91.30
10384;DHT22;5238;43.508;4.980;2022-10-31T00:15:40;18.90;91.30
10384;DHT22;5238;43.508;4.980;2022-10-31T00:18:09;18.90;91.30
10384;DHT22;5238;43.508;4.980;2022-10-31T00:20:46;18.90;91.30
10384;DHT22;5238;43.508;4.980;2022-10-31T00:23:14;18.90;91.30
10384;DHT22;5238;43.508;4.980;2022-10-31T00:26:04;18.80;91.30
10384;DHT22;5238;43.508;4.980;2022-10-31T00:28:54;18.90;91.30
10384;DHT22;5238;43.508;4.980;2022-10-31T00:31:23;18.80;91.30
10384;DHT22;5238;43.508;4.980;2022-10-31T00:34:04;18.80;91.30
10384;DHT22;5238;43.508;4.980;2022-10-31T00:36:34;18.80;91.30
10384;DHT22;5238;43.508;4.980;2022-10-31T00:39:03;18.70;91.30
10384;DHT22;5238;43.508;4.980;2022-10-31T00:41:34;18.70;91.30
10384;DHT22;5238;43.508;4.980;2022-10-31T00:44:01;18.70;91.30
10384;DHT22;5238;43.508;4.980;2022-10-31T00:46:37;18.60;91.30
10384;DHT22;5238;43.508;4.980;2022-10-31T00:49:13;18.60;91.30
10384;DHT22;5238;43.508;4.980;2022-10-31T00:51:42;18.60;91.30
10384;DHT22;5238;43.508;4.980;2022-10-31T00:54:09;18.60;91.30
10384;DHT22;5238;43.508;4.980;2022-10-31T00:56:41;18.60;91.30
10384;DHT22;5238;43.508;4.980;2022-10-31T00:59:10;18.60;91.30
10384;DHT22;5238;43.508;4.980;2022-10-31T01:01:44;18.60;91.30
10384;DHT22;5238;43.508;4.980;2022-10-31T01:04:13;18.60;91.30
10384;DHT22;5238;43.508;4.980;2022-10-31T01:06:42;18.60;91.30
10384;DHT22;5238;43.508;4.980;2022-10-31T01:09:14;18.60;91.30
10384;DHT22;5238;43.508;4.980;2022-10-31T01:11:58;18.60;91.30
10384;DHT22;5238;43.508;4.980;2022-10-31T01:14:28;18.60;91.30
10384;DHT22;5238;43.508;4.980;2022-10-31T01:16:59;18.60;91.30
10384;DHT22;5238;43.508;4.980;2022-10-31T01:19:28;18.60;91.30
10384;DHT22;5238;43.508;4.980;2022-10-31T01:21:59;18.50;91.30
10384;DHT22;5238;43.508;4.980;2022-10-31T01:24:38;18.50;91.30
10384;DHT22;5238;43.508;4.980;2022-10-31T01:27:15;18.50;91.30
10384;DHT22;5238;43.508;4.980;2022-10-31T01:29:46;18.50;91.30
10384;DHT22;5238;43.508;4.980;2022-10-31T01:32:19;18.50;91.30
10384;DHT22;5238;43.508;4.980;2022-10-31T01:34:47;18.60;91.30
10384;DHT22;5238;43.508;4.980;2022-10-31T01:37:18;18.50;91.30
10384;DHT22;5238;43.508;4.980;2022-10-31T01:39:48;18.60;91.30
10384;DHT22;5238;43.508;4.980;2022-10-31T01:42:21;18.60;91.30
10384;DHT22;5238;43.508;4.980;2022-10-31T01:44:58;18.60;91.30
10384;DHT22;5238;43.508;4.980;2022-10-31T01:47:35;18.60;91.30
10384;DHT22;5238;43.508;4.980;2022-10-31T01:50:16;18.60;91.30
10384;DHT22;5238;43.508;4.980;2022-10-31T01:52:51;18.60;91.30
10384;DHT22;5238;43.508;4.980;2022-10-31T01:55:31;18.60;91.30
10384;DHT22;5238;43.508;4.980;2022-10-31T01:58:08;18.50;91.30
10384;DHT22;5238;43.508;4.980;2022-10-31T02:00:43;18.60;91.30
10384;DHT22;5238;43.508;4.980;2022-10-31T02:03:18;18.60;91.30
10384;DHT22;5238;43.508;4.980;2022-10-31T02:06:10;18.50;91.30
10384;DHT22;5238;43.508;4.980;2022-10-31T02:08:53;18.50;91.30
10384;DHT22;5238;43.508;4.980;2022-10-31T02:11:27;18.50;91.30
10384;DHT22;5238;43.508;4.980;2022-10-31T02:14:02;18.50;91.30
10384;DHT22;5238;43.508;4.980;2022-10-31T02:16:51;18.50;91.30
10384;DHT22;5238;43.508;4.980;2022-10-31T02:19:30;18.50;91.30
10384;DHT22;5238;43.508;4.980;2022-10-31T02:22:20;18.50;91.30
10384;DHT22;5238;43.508;4.980;2022-10-31T02:25:27;18.50;91.30
10384;DHT22;5238;43.508;4.980;2022-10-31T02:28:17;18.50;91.30
10384;DHT22;5238;43.508;4.980;2022-10-31T02:31:16;18.50;91.30
10384;DHT22;5238;43.508;4.980;2022-10-31T02:34:01;18.50;91.30
10384;DHT22;5238;43.508;4.980;2022-10-31T02:37:01;18.50;91.30
10384;DHT22;5238;43.508;4.980;2022-10-31T02:39:37;18.50;91.30
10384;DHT22;5238;43.508;4.980;2022-10-31T02:42:16;18.50;91.30
10384;DHT22;5238;43.508;4.980;2022-10-31T02:44:58;18.50;91.30
10384;DHT22;5238;43.508;4.980;2022-10-31T02:47:37;18.40;91.30
10384;DHT22;5238;43.508;4.980;2022-10-31T02:50:08;18.40;91.30
10384;DHT22;5238;43.508;4.980;2022-10-31T02:52:42;18.40;91.30
10384;DHT22;5238;43.508;4.980;2022-10-31T02:55:42;18.40;91.30
10384;DHT22;5238;43.508;4.980;2022-10-31T02:58:15;18.40;91.30
10384;DHT22;5238;43.508;4.980;2022-10-31T03:00:59;18.40;91.30
10384;DHT22;5238;43.508;4.980;2022-10-31T03:04:13;18.30;91.30
10384;DHT22;5238;43.508;4.980;2022-10-31T03:06:52;18.30;91.30
10384;DHT22;5238;43.508;4.980;2022-10-31T03:09:23;18.30;91.30
10384;DHT22;5238;43.508;4.980;2022-10-31T03:12:03;18.30;91.30
10384;DHT22;5238;43.508;4.980;2022-10-31T03:14:39;18.30;91.30
10384;DHT22;5238;43.508;4.980;2022-10-31T03:17:12;18.30;91.30
10384;DHT22;5238;43.508;4.980;2022-10-31T03:19:49;18.30;91.30
10384;DHT22;5238;43.508;4.980;2022-10-31T03:22:39;18.30;91.30
10384;DHT22;5238;43.508;4.980;2022-10-31T03:25:17;18.30;91.30
10384;DHT22;5238;43.508;4.980;2022-10-31T03:27:59;18.20;91.30
10384;DHT22;5238;43.508;4.980;2022-10-31T03:30:41;18.20;91.30
10384;DHT22;5238;43.508;4.980;2022-10-31T03:33:17;18.20;91.30
10384;DHT22;5238;43.508;4.980;2022-10-31T03:35:50;18.20;91.30
10384;DHT22;5238;43.508;4.980;2022-10-31T03:38:35;18.20;91.30
10384;DHT22;5238;43.508;4.980;2022-10-31T03:41:12;18.10;91.30
10384;DHT22;5238;43.508;4.980;2022-10-31T03:44:06;18.10;91.30
10384;DHT22;5238;43.508;4.980;2022-10-31T03:46:35;18.10;91.30
10384;DHT22;5238;43.508;4.980;2022-10-31T03:49:10;18.10;91.30
10384;DHT22;5238;43.508;4.980;2022-10-31T03:51:46;18.00;91.30
10384;DHT22;5238;43.508;4.980;2022-10-31T03:54:25;18.00;91.30
10384;DHT22;5238;43.508;4.980;2022-10-31T03:57:08;18.00;91.30
10384;DHT22;5238;43.508;4.980;2022-10-31T03:59:42;18.00;91.30
10384;DHT22;5238;43.508;4.980;2022-10-31T04:02:22;18.00;91.30
10384;DHT22;5238;43.508;4.980;2022-10-31T04:04:52;18.00;91.30
10384;DHT22;5238;43.508;4.980;2022-10-31T04:07:25;18.00;91.30
10384;DHT22;5238;43.508;4.980;2022-10-31T04:10:06;18.00;91.30
10384;DHT22;5238;43.508;4.980;2022-10-31T04:12:59;18.00;91.30
10384;DHT22;5238;43.508;4.980;2022-10-31T04:15:36;18.00;91.30
10384;DHT22;5238;43.508;4.980;2022-10-31T04:18:05;18.00;91.30
10384;DHT22;5238;43.508;4.980;2022-10-31T04:20:37;18.00;91.30
10384;DHT22;5238;43.508;4.980;2022-10-31T04:23:16;18.00;91.30
10384;DHT22;5238;43.508;4.980;2022-10-31T04:26:07;18.00;91.30
10384;DHT22;5238;43.508;4.980;2022-10-31T04:28:40;18.00;91.30
10384;DHT22;5238;43.508;4.980;2022-10-31T04:31:28;18.00;91.30
10384;DHT22;5238;43.508;4.980;2022-10-31T04:34:04;18.00;91.30
10384;DHT22;5238;43.508;4.980;2022-10-31T04:36:35;18.00;91.30
10384;DHT22;5238;43.508;4.980;2022-10-31T04:39:18;18.00;91.30
10384;DHT22;5238;43.508;4.980;2022-10-31T04:41:50;18.00;91.30
10384;DHT22;5238;43.508;4.980;2022-10-31T04:44:17;18.00;91.30
10384;DHT22;5238;43.508;4.980;2022-10-31T04:46:45;18.00;91.30
10384;DHT22;5238;43.508;4.980;2022-10-31T04:49:12;18.00;91.30
10384;DHT22;5238;43.508;4.980;2022-10-31T04:51:44;18.00;91.30
10384;DHT22;5238;43.508;4.980;2022-10-31T04:54:26;18.00;91.30
10384;DHT22;5238;43.508;4.980;2022-10-31T04:57:07;18.00;91.30
10384;DHT22;5238;43.508;4.980;2022-10-31T04:59:41;18.10;91.30
10384;DHT22;5238;43.508;4.980;2022-10-31T05:02:18;18.10;91.30
10384;DHT22;5238;43.508;4.980;2022-10-31T05:04:46;18.10;91.30
10384;DHT22;5238;43.508;4.980;2022-10-31T05:07:17;18.10;91.30
10384;DHT22;5238;43.508;4.980;2022-10-31T05:09:57;18.20;91.30
10384;DHT22;5238;43.508;4.980;2022-10-31T05:12:45;18.20;91.30
10384;DHT22;5238;43.508;4.980;2022-10-31T05:15:15;18.20;91.30
10384;DHT22;5238;43.508;4.980;2022-10-31T05:17:44;18.20;91.30
10384;DHT22;5238;43.508;4.980;2022-10-31T05:20:12;18.20;91.30
10384;DHT22;5238;43.508;4.980;2022-10-31T05:22:51;18.20;91.30
10384;DHT22;5238;43.508;4.980;2022-10-31T05:25:24;18.20;91.30
10384;DHT22;5238;43.508;4.980;2022-10-31T05:27:59;18.20;91.30
10384;DHT22;5238;43.508;4.980;2022-10-31T05:30:38;18.20;91.30
10384;DHT22;5238;43.508;4.980;2022-10-31T05:33:07;18.20;91.30
10384;DHT22;5238;43.508;4.980;2022-10-31T05:35:36;18.20;91.30
10384;DHT22;5238;43.508;4.980;2022-10-31T05:38:08;18.20;91.30
10384;DHT22;5238;43.508;4.980;2022-10-31T05:40:37;18.30;91.30
10384;DHT22;5238;43.508;4.980;2022-10-31T05:43:13;18.30;91.30
10384;DHT22;5238;43.508;4.980;2022-10-31T05:45:44;18.30;91.30
10384;DHT22;5238;43.508;4.980;2022-10-31T05:48:12;18.30;91.30
10384;DHT22;5238;43.508;4.980;2022-10-31T05:50:39;18.30;91.30
10384;DHT22;5238;43.508;4.980;2022-10-31T05:53:08;18.30;91.30
10384;DHT22;5238;43.508;4.980;2022-10-31T05:55:44;18.30;91.30
10384;DHT22;5238;43.508;4.980;2022-10-31T05:58:19;18.30;91.30
10384;DHT22;5238;43.508;4.980;2022-10-31T06:01:01;18.30;91.30
10384;DHT22;5238;43.508;4.980;2022-10-31T06:03:28;18.30;91.30
10384;DHT22;5238;43.508;4.980;2022-10-31T06:05:56;18.30;91.30
10384;DHT22;5238;43.508;4.980;2022-10-31T06:08:23;18.30;91.30
10384;DHT22;5238;43.508;4.980;2022-10-31T06:10:52;18.30;91.30
10384;DHT22;5238;43.508;4.980;2022-10-31T06:13:23;18.30;91.30
10384;DHT22;5238;43.508;4.980;2022-10-31T06:15:52;18.30;91.30
10384;DHT22;5238;43.508;4.980;2022-10-31T06:18:22;18.30;91.30
10384;DHT22;5238;43.508;4.980;2022-10-31T06:20:56;18.20;91.30
10384;DHT22;5238;43.508;4.980;2022-10-31T06:23:24;18.20;91.30
10384;DHT22;5238;43.508;4.980;2022-10-31T06:25:56;18.20;91.30
10384;DHT22;5238;43.508;4.980;2022-10-31T06:28:23;18.20;91.30
10384;DHT22;5238;43.508;4.980;2022-10-31T06:30:51;18.20;91.30
10384;DHT22;5238;43.508;4.980;2022-10-31T06:33:31;18.20;91.30
10384;DHT22;5238;43.508;4.980;2022-10-31T06:36:06;18.20;91.30
10384;DHT22;5238;43.508;4.980;2022-10-31T06:38:34;18.20;91.30
10384;DHT22;5238;43.508;4.980;2022-10-31T06:41:11;18.20;91.30
10384;DHT22;5238;43.508;4.980;2022-10-31T06:43:45;18.20;91.30
10384;DHT22;5238;43.508;4.980;2022-10-31T06:46:18;18.20;91.30
10384;DHT22;5238;43.508;4.980;2022-10-31T06:51:52;18.30;91.30
10384;DHT22;5238;43.508;4.980;2022-10-31T06:54:22;18.40;91.30
10384;DHT22;5238;43.508;4.980;2022-10-31T06:56:56;18.40;91.30
10384;DHT22;5238;43.508;4.980;2022-10-31T06:59:24;18.50;91.30
10384;DHT22;5238;43.508;4.980;2022-10-31T07:02:08;18.50;91.30
10384;DHT22;5238;43.508;4.980;2022-10-31T07:04:36;18.60;91.30
10384;DHT22;5238;43.508;4.980;2022-10-31T07:07:06;18.70;91.30
10384;DHT22;5238;43.508;4.980;2022-10-31T07:10:08;18.70;91.30
10384;DHT22;5238;43.508;4.980;2022-10-31T07:12:56;18.80;91.30
10384;DHT22;5238;43.508;4.980;2022-10-31T07:15:23;18.90;91.30
10384;DHT22;5238;43.508;4.980;2022-10-31T07:17:52;18.90;91.30
10384;DHT22;5238;43.508;4.980;2022-10-31T07:20:21;19.00;91.30
10384;DHT22;5238;43.508;4.980;2022-10-31T07:22:49;19.10;91.30
10384;DHT22;5238;43.508;4.980;2022-10-31T07:25:20;19.20;91.30
10384;DHT22;5238;43.508;4.980;2022-10-31T07:27:48;19.30;91.30
10384;DHT22;5238;43.508;4.980;2022-10-31T07:30:37;19.40;91.30
10384;DHT22;5238;43.508;4.980;2022-10-31T07:33:06;19.40;91.30
10384;DHT22;5238;43.508;4.980;2022-10-31T07:35:39;19.40;91.30
10384;DHT22;5238;43.508;4.980;2022-10-31T07:38:09;19.50;91.30
10384;DHT22;5238;43.508;4.980;2022-10-31T07:40:39;19.50;91.30
10384;DHT22;5238;43.508;4.980;2022-10-31T07:43:08;19.60;91.30
10384;DHT22;5238;43.508;4.980;2022-10-31T07:45:49;19.70;91.30
10384;DHT22;5238;43.508;4.980;2022-10-31T07:48:18;19.80;91.30
10384;DHT22;5238;43.508;4.980;2022-10-31T07:50:49;19.90;91.30
10384;DHT22;5238;43.508;4.980;2022-10-31T07:53:17;20.20;91.30
10384;DHT22;5238;43.508;4.980;2022-10-31T07:56:00;20.20;91.30
10384;DHT22;5238;43.508;4.980;2022-10-31T07:58:38;20.20;91.30
10384;DHT22;5238;43.508;4.980;2022-10-31T08:01:20;20.30;91.30
10384;DHT22;5238;43.508;4.980;2022-10-31T08:03:49;20.30;91.30
10384;DHT22;5238;43.508;4.980;2022-10-31T08:06:20;20.40;91.30
10384;DHT22;5238;43.508;4.980;2022-10-31T08:08:51;20.50;91.30
10384;DHT22;5238;43.508;4.980;2022-10-31T08:11:33;20.60;91.30
10384;DHT22;5238;43.508;4.980;2022-10-31T08:14:03;20.70;91.30
10384;DHT22;5238;43.508;4.980;2022-10-31T08:16:45;20.90;91.30
10384;DHT22;5238;43.508;4.980;2022-10-31T08:19:17;21.00;91.30
10384;DHT22;5238;43.508;4.980;2022-10-31T08:22:00;21.20;91.30
10384;DHT22;5238;43.508;4.980;2022-10-31T08:24:41;21.30;91.30
10384;DHT22;5238;43.508;4.980;2022-10-31T08:27:11;21.50;91.30
10384;DHT22;5238;43.508;4.980;2022-10-31T08:29:43;21.70;91.30
10384;DHT22;5238;43.508;4.980;2022-10-31T08:32:13;22.00;91.30
10384;DHT22;5238;43.508;4.980;2022-10-31T08:34:41;22.20;91.30
10384;DHT22;5238;43.508;4.980;2022-10-31T08:37:08;22.40;91.30
10384;DHT22;5238;43.508;4.980;2022-10-31T08:39:36;22.60;91.30
10384;DHT22;5238;43.508;4.980;2022-10-31T08:42:18;22.80;91.30
10384;DHT22;5238;43.508;4.980;2022-10-31T08:44:59;23.00;91.30
10384;DHT22;5238;43.508;4.980;2022-10-31T08:47:30;23.20;91.30
10384;DHT22;5238;43.508;4.980;2022-10-31T08:50:01;23.40;91.30
10384;DHT22;5238;43.508;4.980;2022-10-31T08:52:28;23.70;91.30
10384;DHT22;5238;43.508;4.980;2022-10-31T08:54:58;23.90;91.30
10384;DHT22;5238;43.508;4.980;2022-10-31T08:57:29;24.00;91.30
10384;DHT22;5238;43.508;4.980;2022-10-31T09:00:12;24.20;91.30
10384;DHT22;5238;43.508;4.980;2022-10-31T09:03:17;24.40;91.30
10384;DHT22;5238;43.508;4.980;2022-10-31T09:06:02;24.50;91.30
10384;DHT22;5238;43.508;4.980;2022-10-31T09:08:43;24.60;91.30
10384;DHT22;5238;43.508;4.980;2022-10-31T09:11:12;24.70;91.30
10384;DHT22;5238;43.508;4.980;2022-10-31T09:13:41;24.90;91.30
10384;DHT22;5238;43.508;4.980;2022-10-31T09:16:11;25.00;91.30
10384;DHT22;5238;43.508;4.980;2022-10-31T09:21:53;25.40;91.30
10384;DHT22;5238;43.508;4.980;2022-10-31T09:24:34;25.50;91.30
10384;DHT22;5238;43.508;4.980;2022-10-31T09:27:15;25.50;91.30
10384;DHT22;5238;43.508;4.980;2022-10-31T09:29:56;25.50;91.30
10384;DHT22;5238;43.508;4.980;2022-10-31T09:32:38;25.50;91.30
10384;DHT22;5238;43.508;4.980;2022-10-31T09:35:19;25.40;91.30
10384;DHT22;5238;43.508;4.980;2022-10-31T09:38:17;25.30;91.30
10384;DHT22;5238;43.508;4.980;2022-10-31T09:40:47;25.10;91.30
10384;DHT22;5238;43.508;4.980;2022-10-31T09:43:33;24.90;91.30
10384;DHT22;5238;43.508;4.980;2022-10-31T09:46:21;24.90;91.30
10384;DHT22;5238;43.508;4.980;2022-10-31T09:49:04;24.90;91.30
10384;DHT22;5238;43.508;4.980;2022-10-31T09:51:48;25.00;91.30
10384;DHT22;5238;43.508;4.980;2022-10-31T09:54:28;25.10;91.30
10384;DHT22;5238;43.508;4.980;2022-10-31T09:56:58;25.30;91.30
10384;DHT22;5238;43.508;4.980;2022-10-31T09:59:30;25.30;91.30
10384;DHT22;5238;43.508;4.980;2022-10-31T10:02:05;25.30;91.30
10384;DHT22;5238;43.508;4.980;2022-10-31T10:04:55;25.30;91.30
10384;DHT22;5238;43.508;4.980;2022-10-31T10:07:35;25.40;91.30
10384;DHT22;5238;43.508;4.980;2022-10-31T10:10:23;25.50;91.30
10384;DHT22;5238;43.508;4.980;2022-10-31T10:13:34;25.50;91.30
10384;DHT22;5238;43.508;4.980;2022-10-31T10:16:21;25.50;91.30
10384;DHT22;5238;43.508;4.980;2022-10-31T10:19:08;25.70;91.30
10384;DHT22;5238;43.508;4.980;2022-10-31T10:21:59;25.90;91.30
10384;DHT22;5238;43.508;4.980;2022-10-31T10:24:53;26.10;91.30
10384;DHT22;5238;43.508;4.980;2022-10-31T10:27:58;26.00;91.30
10384;DHT22;5238;43.508;4.980;2022-10-31T10:30:43;26.00;91.30
10384;DHT22;5238;43.508;4.980;2022-10-31T10:33:21;26.10;91.30
10384;DHT22;5238;43.508;4.980;2022-10-31T10:35:57;26.10;91.30
10384;DHT22;5238;43.508;4.980;2022-10-31T10:38:29;26.20;91.30
10384;DHT22;5238;43.508;4.980;2022-10-31T10:41:17;26.30;91.30
10384;DHT22;5238;43.508;4.980;2022-10-31T10:44:14;26.30;91.30
10384;DHT22;5238;43.508;4.980;2022-10-31T10:46:57;26.20;91.30
10384;DHT22;5238;43.508;4.980;2022-10-31T10:49:49;26.20;91.30
10384;DHT22;5238;43.508;4.980;2022-10-31T10:52:29;26.10;91.30
10384;DHT22;5238;43.508;4.980;2022-10-31T10:55:16;26.00;91.30
10384;DHT22;5238;43.508;4.980;2022-10-31T10:57:56;26.00;91.30
10384;DHT22;5238;43.508;4.980;2022-10-31T11:00:38;25.90;91.30
10384;DHT22;5238;43.508;4.980;2022-10-31T11:03:07;25.90;91.30
10384;DHT22;5238;43.508;4.980;2022-10-31T11:05:41;25.90;91.30
10384;DHT22;5238;43.508;4.980;2022-10-31T11:08:24;25.90;91.30
10384;DHT22;5238;43.508;4.980;2022-10-31T11:11:03;25.80;91.30
10384;DHT22;5238;43.508;4.980;2022-10-31T11:13:36;25.70;91.30
10384;DHT22;5238;43.508;4.980;2022-10-31T11:16:33;25.70;91.30
10384;DHT22;5238;43.508;4.980;2022-10-31T11:19:13;25.60;91.30
10384;DHT22;5238;43.508;4.980;2022-10-31T11:21:43;25.60;91.30
10384;DHT22;5238;43.508;4.980;2022-10-31T11:24:16;25.50;91.30
10384;DHT22;5238;43.508;4.980;2022-10-31T11:27:16;25.40;91.30
10384;DHT22;5238;43.508;4.980;2022-10-31T11:29:51;25.40;91.30
10384;DHT22;5238;43.508;4.980;2022-10-31T11:32:39;25.30;91.30
10384;DHT22;5238;43.508;4.980;2022-10-31T11:35:26;25.20;91.30
10384;DHT22;5238;43.508;4.980;2022-10-31T11:37:59;25.20;91.30
10384;DHT22;5238;43.508;4.980;2022-10-31T11:40:28;25.10;91.30
10384;DHT22;5238;43.508;4.980;2022-10-31T11:43:03;25.10;91.30
10384;DHT22;5238;43.508;4.980;2022-10-31T11:45:32;25.00;91.30
10384;DHT22;5238;43.508;4.980;2022-10-31T11:48:15;25.00;91.30
10384;DHT22;5238;43.508;4.980;2022-10-31T11:50:48;25.10;91.30
10384;DHT22;5238;43.508;4.980;2022-10-31T11:53:26;25.10;91.30
10384;DHT22;5238;43.508;4.980;2022-10-31T11:56:12;25.10;91.30
10384;DHT22;5238;43.508;4.980;2022-10-31T11:58:41;25.10;91.30
10384;DHT22;5238;43.508;4.980;2022-10-31T12:01:24;25.10;91.30
10384;DHT22;5238;43.508;4.980;2022-10-31T12:04:10;25.10;91.30
10384;DHT22;5238;43.508;4.980;2022-10-31T12:06:41;25.10;91.30
10384;DHT22;5238;43.508;4.980;2022-10-31T12:09:18;25.10;91.30
10384;DHT22;5238;43.508;4.980;2022-10-31T12:11:58;25.10;91.30
10384;DHT22;5238;43.508;4.980;2022-10-31T12:14:34;25.00;91.30
10384;DHT22;5238;43.508;4.980;2022-10-31T12:17:13;24.90;91.30
10384;DHT22;5238;43.508;4.980;2022-10-31T12:19:50;24.90;91.30
10384;DHT22;5238;43.508;4.980;2022-10-31T12:22:29;24.90;91.30
10384;DHT22;5238;43.508;4.980;2022-10-31T12:25:17;24.90;91.30
10384;DHT22;5238;43.508;4.980;2022-10-31T12:31:06;24.80;91.30
10384;DHT22;5238;43.508;4.980;2022-10-31T12:33:50;24.90;91.30
10384;DHT22;5238;43.508;4.980;2022-10-31T12:39:40;24.80;91.30
10384;DHT22;5238;43.508;4.980;2022-10-31T12:42:21;24.80;91.30
10384;DHT22;5238;43.508;4.980;2022-10-31T12:45:13;24.80;91.30
10384;DHT22;5238;43.508;4.980;2022-10-31T12:48:00;24.80;91.30
10384;DHT22;5238;43.508;4.980;2022-10-31T12:50:52;24.80;91.30
10384;DHT22;5238;43.508;4.980;2022-10-31T12:53:34;24.80;91.30
10384;DHT22;5238;43.508;4.980;2022-10-31T12:56:27;24.80;91.30
10384;DHT22;5238;43.508;4.980;2022-10-31T12:59:04;24.80;91.30
10384;DHT22;5238;43.508;4.980;2022-10-31T13:01:36;24.80;91.30
10384;DHT22;5238;43.508;4.980;2022-10-31T13:04:33;24.80;91.30
10384;DHT22;5238;43.508;4.980;2022-10-31T13:07:10;24.80;91.30
10384;DHT22;5238;43.508;4.980;2022-10-31T13:09:45;24.90;91.30
10384;DHT22;5238;43.508;4.980;2022-10-31T13:12:18;24.90;91.30
10384;DHT22;5238;43.508;4.980;2022-10-31T13:15:05;24.90;91.30
10384;DHT22;5238;43.508;4.980;2022-10-31T13:17:45;24.90;91.30
10384;DHT22;5238;43.508;4.980;2022-10-31T13:20:31;24.90;91.30
10384;DHT22;5238;43.508;4.980;2022-10-31T13:23:10;25.00;91.30
10384;DHT22;5238;43.508;4.980;2022-10-31T13:25:52;25.00;91.30
10384;DHT22;5238;43.508;4.980;2022-10-31T13:28:33;25.00;91.30
10384;DHT22;5238;43.508;4.980;2022-10-31T13:31:16;25.00;91.30
10384;DHT22;5238;43.508;4.980;2022-10-31T13:33:52;25.10;91.30
10384;DHT22;5238;43.508;4.980;2022-10-31T13:36:33;25.10;91.30
10384;DHT22;5238;43.508;4.980;2022-10-31T13:39:18;25.00;91.30
10384;DHT22;5238;43.508;4.980;2022-10-31T13:42:08;25.00;91.30
10384;DHT22;5238;43.508;4.980;2022-10-31T13:44:43;25.00;91.30
10384;DHT22;5238;43.508;4.980;2022-10-31T13:47:24;25.00;91.30
10384;DHT22;5238;43.508;4.980;2022-10-31T13:50:04;25.00;91.30
10384;DHT22;5238;43.508;4.980;2022-10-31T13:52:34;25.00;91.30
10384;DHT22;5238;43.508;4.980;2022-10-31T13:55:03;24.90;91.30
10384;DHT22;5238;43.508;4.980;2022-10-31T13:57:32;24.90;91.30
10384;DHT22;5238;43.508;4.980;2022-10-31T14:00:23;24.90;91.30
10384;DHT22;5238;43.508;4.980;2022-10-31T14:02:52;24.80;91.30
10384;DHT22;5238;43.508;4.980;2022-10-31T14:05:24;24.80;91.30
10384;DHT22;5238;43.508;4.980;2022-10-31T14:07:53;24.70;91.30
10384;DHT22;5238;43.508;4.980;2022-10-31T14:10:26;24.70;91.30
10384;DHT22;5238;43.508;4.980;2022-10-31T14:13:14;24.60;91.30
10384;DHT22;5238;43.508;4.980;2022-10-31T14:16:16;24.60;91.30
10384;DHT22;5238;43.508;4.980;2022-10-31T14:18:51;24.60;91.30
10384;DHT22;5238;43.508;4.980;2022-10-31T14:21:40;24.50;91.30
10384;DHT22;5238;43.508;4.980;2022-10-31T14:24:31;24.50;91.30
10384;DHT22;5238;43.508;4.980;2022-10-31T14:27:42;24.40;91.30
10384;DHT22;5238;43.508;4.980;2022-10-31T14:30:25;24.40;91.30
10384;DHT22;5238;43.508;4.980;2022-10-31T14:33:16;24.40;91.30
10384;DHT22;5238;43.508;4.980;2022-10-31T14:36:00;24.30;91.30
10384;DHT22;5238;43.508;4.980;2022-10-31T14:38:39;24.30;91.30
10384;DHT22;5238;43.508;4.980;2022-10-31T14:41:29;24.30;91.30
10384;DHT22;5238;43.508;4.980;2022-10-31T14:44:21;24.30;91.30
10384;DHT22;5238;43.508;4.980;2022-10-31T14:47:15;24.20;91.30
10384;DHT22;5238;43.508;4.980;2022-10-31T14:50:17;24.10;91.30
10384;DHT22;5238;43.508;4.980;2022-10-31T14:52:53;24.00;91.30
10384;DHT22;5238;43.508;4.980;2022-10-31T14:55:28;24.00;91.30
10384;DHT22;5238;43.508;4.980;2022-10-31T14:58:00;23.90;91.30
10384;DHT22;5238;43.508;4.980;2022-10-31T15:00:44;23.80;91.30
10384;DHT22;5238;43.508;4.980;2022-10-31T15:03:16;23.80;91.30
10384;DHT22;5238;43.508;4.980;2022-10-31T15:06:02;23.70;91.30
10384;DHT22;5238;43.508;4.980;2022-10-31T15:08:43;23.70;91.30
10384;DHT22;5238;43.508;4.980;2022-10-31T15:11:19;23.60;91.30
10384;DHT22;5238;43.508;4.980;2022-10-31T15:13:52;23.60;91.30
10384;DHT22;5238;43.508;4.980;2022-10-31T15:16:22;23.60;91.30
10384;DHT22;5238;43.508;4.980;2022-10-31T15:19:02;23.50;91.30
10384;DHT22;5238;43.508;4.980;2022-10-31T15:21:43;23.40;91.30
10384;DHT22;5238;43.508;4.980;2022-10-31T15:24:15;23.40;91.30
10384;DHT22;5238;43.508;4.980;2022-10-31T15:26:47;23.40;91.30
10384;DHT22;5238;43.508;4.980;2022-10-31T15:29:22;23.40;91.30
10384;DHT22;5238;43.508;4.980;2022-10-31T15:31:51;23.40;91.30
10384;DHT22;5238;43.508;4.980;2022-10-31T15:34:29;23.40;91.30
10384;DHT22;5238;43.508;4.980;2022-10-31T15:37:31;23.40;91.30
10384;DHT22;5238;43.508;4.980;2022-10-31T15:40:23;23.40;91.30
10384;DHT22;5238;43.508;4.980;2022-10-31T15:43:01;23.40;91.30
10384;DHT22;5238;43.508;4.980;2022-10-31T15:45:42;23.30;91.30
10384;DHT22;5238;43.508;4.980;2022-10-31T15:48:16;23.30;91.30
10384;DHT22;5238;43.508;4.980;2022-10-31T15:50:48;23.20;91.30
10384;DHT22;5238;43.508;4.980;2022-10-31T15:53:21;23.20;91.30
10384;DHT22;5238;43.508;4.980;2022-10-31T15:55:56;23.20;91.30
10384;DHT22;5238;43.508;4.980;2022-10-31T15:58:24;23.10;91.30
10384;DHT22;5238;43.508;4.980;2022-10-31T16:01:00;23.10;91.30
10384;DHT22;5238;43.508;4.980;2022-10-31T16:03:33;23.10;91.30
10384;DHT22;5238;43.508;4.980;2022-10-31T16:06:20;23.10;91.30
10384;DHT22;5238;43.508;4.980;2022-10-31T16:09:21;23.00;91.30
10384;DHT22;5238;43.508;4.980;2022-10-31T16:11:49;23.00;91.30
10384;DHT22;5238;43.508;4.980;2022-10-31T16:14:39;22.90;91.30
10384;DHT22;5238;43.508;4.980;2022-10-31T16:17:12;22.90;91.30
10384;DHT22;5238;43.508;4.980;2022-10-31T16:19:50;22.90;91.30
10384;DHT22;5238;43.508;4.980;2022-10-31T16:22:29;22.90;91.30
10384;DHT22;5238;43.508;4.980;2022-10-31T16:25:16;22.80;91.30
10384;DHT22;5238;43.508;4.980;2022-10-31T16:27:48;22.80;91.30
10384;DHT22;5238;43.508;4.980;2022-10-31T16:30:37;22.80;91.30
10384;DHT22;5238;43.508;4.980;2022-10-31T16:33:25;22.70;91.30
10384;DHT22;5238;43.508;4.980;2022-10-31T16:35:52;22.70;91.30
10384;DHT22;5238;43.508;4.980;2022-10-31T16:38:20;22.70;91.30
10384;DHT22;5238;43.508;4.980;2022-10-31T16:40:49;22.70;91.30
10384;DHT22;5238;43.508;4.980;2022-10-31T16:43:19;22.70;91.30
10384;DHT22;5238;43.508;4.980;2022-10-31T16:45:49;22.60;91.30
10384;DHT22;5238;43.508;4.980;2022-10-31T16:48:24;22.60;91.30
10384;DHT22;5238;43.508;4.980;2022-10-31T16:51:09;22.60;91.30
10384;DHT22;5238;43.508;4.980;2022-10-31T16:53:42;22.60;91.30
10384;DHT22;5238;43.508;4.980;2022-10-31T16:56:17;22.60;91.30
10384;DHT22;5238;43.508;4.980;2022-10-31T16:58:47;22.60;91.30
10384;DHT22;5238;43.508;4.980;2022-10-31T17:01:14;22.60;91.30
10384;DHT22;5238;43.508;4.980;2022-10-31T17:03:42;22.60;91.30